sensor_id;sensor_type;location;lat;lon;timestamp;P1;durP1;ratioP1;P2;durP2;ratioP2
69347;SDS011;56497;45.058;41.926;2023-03-31T00:00:12;6.63;;;2.60;;
69347;SDS011;56497;45.058;41.926;2023-03-31T00:00:44;6.32;;;2.60;;
69347;SDS011;56497;45.058;41.926;2023-03-31T00:01:17;6.35;;;2.40;;
69347;SDS011;56497;45.058;41.926;2023-03-31T00:01:48;6.97;;;2.70;;
69347;SDS011;56497;45.058;41.926;2023-03-31T00:02:21;6.22;;;2.70;;
69347;SDS011;56497;45.058;41.926;2023-03-31T00:02:52;6.53;;;2.70;;
69347;SDS011;56497;45.058;41.926;2023-03-31T00:03:23;6.54;;;2.50;;
69347;SDS011;56497;45.058;41.926;2023-03-31T00:03:54;6.03;;;2.40;;
69347;SDS011;56497;45.058;41.926;2023-03-31T00:04:31;6.10;;;2.38;;
69347;SDS011;56497;45.058;41.926;2023-03-31T00:05:02;6.96;;;2.50;;
69347;SDS011;56497;45.058;41.926;2023-03-31T00:05:34;6.57;;;2.67;;
69347;SDS011;56497;45.058;41.926;2023-03-31T00:06:06;6.00;;;2.60;;
69347;SDS011;56497;45.058;41.926;2023-03-31T00:06:37;6.97;;;2.53;;
69347;SDS011;56497;45.058;41.926;2023-03-31T00:07:11;6.00;;;2.60;;
69347;SDS011;56497;45.058;41.926;2023-03-31T00:07:44;6.06;;;2.40;;
69347;SDS011;56497;45.058;41.926;2023-03-31T00:08:15;6.32;;;2.42;;
69347;SDS011;56497;45.058;41.926;2023-03-31T00:08:46;6.52;;;2.40;;
69347;SDS011;56497;45.058;41.926;2023-03-31T00:09:20;6.60;;;2.63;;
69347;SDS011;56497;45.058;41.926;2023-03-31T00:09:51;6.65;;;2.70;;
69347;SDS011;56497;45.058;41.926;2023-03-31T00:10:27;6.20;;;2.35;;
69347;SDS011;56497;45.058;41.926;2023-03-31T00:10:58;6.26;;;2.58;;
69347;SDS011;56497;45.058;41.926;2023-03-31T00:11:32;5.64;;;2.30;;
69347;SDS011;56497;45.058;41.926;2023-03-31T00:12:03;7.35;;;2.60;;
69347;SDS011;56497;45.058;41.926;2023-03-31T00:12:33;5.88;;;2.30;;
69347;SDS011;56497;45.058;41.926;2023-03-31T00:13:04;7.50;;;2.53;;
69347;SDS011;56497;45.058;41.926;2023-03-31T00:13:35;6.32;;;2.50;;
69347;SDS011;56497;45.058;41.926;2023-03-31T00:14:06;6.53;;;2.67;;
69347;SDS011;56497;45.058;41.926;2023-03-31T00:14:37;5.82;;;2.26;;
69347;SDS011;56497;45.058;41.926;2023-03-31T00:15:08;6.45;;;2.53;;
69347;SDS011;56497;45.058;41.926;2023-03-31T00:15:39;6.53;;;2.63;;
69347;SDS011;56497;45.058;41.926;2023-03-31T00:16:10;5.82;;;2.46;;
69347;SDS011;56497;45.058;41.926;2023-03-31T00:16:40;6.13;;;2.60;;
69347;SDS011;56497;45.058;41.926;2023-03-31T00:17:11;6.10;;;2.35;;
69347;SDS011;56497;45.058;41.926;2023-03-31T00:17:42;5.93;;;2.33;;
69347;SDS011;56497;45.058;41.926;2023-03-31T00:18:12;6.95;;;2.60;;
69347;SDS011;56497;45.058;41.926;2023-03-31T00:18:43;7.03;;;2.40;;
69347;SDS011;56497;45.058;41.926;2023-03-31T00:19:16;6.30;;;2.40;;
69347;SDS011;56497;45.058;41.926;2023-03-31T00:19:50;6.60;;;2.38;;
69347;SDS011;56497;45.058;41.926;2023-03-31T00:20:20;6.25;;;2.40;;
69347;SDS011;56497;45.058;41.926;2023-03-31T00:20:58;6.43;;;2.35;;
69347;SDS011;56497;45.058;41.926;2023-03-31T00:21:43;5.63;;;2.28;;
69347;SDS011;56497;45.058;41.926;2023-03-31T00:22:15;7.60;;;2.50;;
69347;SDS011;56497;45.058;41.926;2023-03-31T00:22:51;6.34;;;2.50;;
69347;SDS011;56497;45.058;41.926;2023-03-31T00:23:23;8.32;;;2.50;;
69347;SDS011;56497;45.058;41.926;2023-03-31T00:24:00;5.86;;;2.42;;
69347;SDS011;56497;45.058;41.926;2023-03-31T00:24:32;6.75;;;2.50;;
69347;SDS011;56497;45.058;41.926;2023-03-31T00:25:04;6.16;;;2.50;;
69347;SDS011;56497;45.058;41.926;2023-03-31T00:25:38;6.68;;;2.56;;
69347;SDS011;56497;45.058;41.926;2023-03-31T00:26:12;6.30;;;2.38;;
69347;SDS011;56497;45.058;41.926;2023-03-31T00:26:43;6.28;;;2.50;;
69347;SDS011;56497;45.058;41.926;2023-03-31T00:27:14;6.92;;;2.62;;
69347;SDS011;56497;45.058;41.926;2023-03-31T00:27:45;6.65;;;2.47;;
69347;SDS011;56497;45.058;41.926;2023-03-31T00:28:15;6.24;;;2.68;;
69347;SDS011;56497;45.058;41.926;2023-03-31T00:28:46;7.05;;;2.88;;
69347;SDS011;56497;45.058;41.926;2023-03-31T00:29:17;5.60;;;2.20;;
69347;SDS011;56497;45.058;41.926;2023-03-31T00:29:47;6.60;;;2.70;;
69347;SDS011;56497;45.058;41.926;2023-03-31T00:30:19;5.90;;;2.40;;
69347;SDS011;56497;45.058;41.926;2023-03-31T00:30:50;6.73;;;2.53;;
69347;SDS011;56497;45.058;41.926;2023-03-31T00:31:22;6.34;;;2.50;;
69347;SDS011;56497;45.058;41.926;2023-03-31T00:31:53;6.30;;;2.58;;
69347;SDS011;56497;45.058;41.926;2023-03-31T00:32:24;6.38;;;2.30;;
69347;SDS011;56497;45.058;41.926;2023-03-31T00:32:55;6.30;;;2.42;;
69347;SDS011;56497;45.058;41.926;2023-03-31T00:33:25;7.05;;;2.60;;
69347;SDS011;56497;45.058;41.926;2023-03-31T00:33:56;6.32;;;2.45;;
69347;SDS011;56497;45.058;41.926;2023-03-31T00:34:27;7.46;;;2.50;;
69347;SDS011;56497;45.058;41.926;2023-03-31T00:34:59;6.94;;;2.50;;
69347;SDS011;56497;45.058;41.926;2023-03-31T00:35:31;5.94;;;2.46;;
69347;SDS011;56497;45.058;41.926;2023-03-31T00:36:04;6.44;;;2.38;;
69347;SDS011;56497;45.058;41.926;2023-03-31T00:36:38;7.14;;;2.72;;
69347;SDS011;56497;45.058;41.926;2023-03-31T00:37:14;6.00;;;2.42;;
69347;SDS011;56497;45.058;41.926;2023-03-31T00:37:45;6.60;;;2.50;;
69347;SDS011;56497;45.058;41.926;2023-03-31T00:38:16;6.40;;;2.40;;
69347;SDS011;56497;45.058;41.926;2023-03-31T00:38:47;6.40;;;2.40;;
69347;SDS011;56497;45.058;41.926;2023-03-31T00:39:18;6.55;;;2.55;;
69347;SDS011;56497;45.058;41.926;2023-03-31T00:39:48;5.68;;;2.42;;
69347;SDS011;56497;45.058;41.926;2023-03-31T00:40:19;6.93;;;2.30;;
69347;SDS011;56497;45.058;41.926;2023-03-31T00:40:50;5.60;;;2.40;;
69347;SDS011;56497;45.058;41.926;2023-03-31T00:41:20;6.13;;;2.53;;
69347;SDS011;56497;45.058;41.926;2023-03-31T00:41:51;6.10;;;2.30;;
69347;SDS011;56497;45.058;41.926;2023-03-31T00:42:22;5.70;;;2.30;;
69347;SDS011;56497;45.058;41.926;2023-03-31T00:42:53;5.95;;;2.30;;
69347;SDS011;56497;45.058;41.926;2023-03-31T00:43:28;6.15;;;2.50;;
69347;SDS011;56497;45.058;41.926;2023-03-31T00:45:44;5.70;;;2.10;;
69347;SDS011;56497;45.058;41.926;2023-03-31T00:46:18;5.92;;;2.20;;
69347;SDS011;56497;45.058;41.926;2023-03-31T00:46:54;5.88;;;2.20;;
69347;SDS011;56497;45.058;41.926;2023-03-31T00:47:26;6.68;;;2.12;;
69347;SDS011;56497;45.058;41.926;2023-03-31T00:48:04;5.55;;;2.20;;
69347;SDS011;56497;45.058;41.926;2023-03-31T00:48:42;6.13;;;2.30;;
69347;SDS011;56497;45.058;41.926;2023-03-31T00:49:22;6.22;;;2.20;;
69347;SDS011;56497;45.058;41.926;2023-03-31T00:49:57;5.93;;;2.20;;
69347;SDS011;56497;45.058;41.926;2023-03-31T00:50:29;5.73;;;2.27;;
69347;SDS011;56497;45.058;41.926;2023-03-31T00:51:04;5.30;;;2.20;;
69347;SDS011;56497;45.058;41.926;2023-03-31T00:51:36;5.78;;;2.30;;
69347;SDS011;56497;45.058;41.926;2023-03-31T00:52:18;5.64;;;2.14;;
69347;SDS011;56497;45.058;41.926;2023-03-31T00:52:56;5.88;;;2.28;;
69347;SDS011;56497;45.058;41.926;2023-03-31T00:53:32;5.97;;;2.20;;
69347;SDS011;56497;45.058;41.926;2023-03-31T00:54:05;6.78;;;2.30;;
69347;SDS011;56497;45.058;41.926;2023-03-31T00:54:37;6.03;;;2.20;;
69347;SDS011;56497;45.058;41.926;2023-03-31T00:55:12;6.18;;;2.30;;
69347;SDS011;56497;45.058;41.926;2023-03-31T00:55:48;6.10;;;2.30;;
69347;SDS011;56497;45.058;41.926;2023-03-31T00:56:24;5.45;;;2.03;;
69347;SDS011;56497;45.058;41.926;2023-03-31T00:56:57;5.86;;;2.10;;
69347;SDS011;56497;45.058;41.926;2023-03-31T00:57:32;5.43;;;2.10;;
69347;SDS011;56497;45.058;41.926;2023-03-31T00:58:06;5.75;;;2.15;;
69347;SDS011;56497;45.058;41.926;2023-03-31T00:58:38;6.18;;;2.20;;
69347;SDS011;56497;45.058;41.926;2023-03-31T00:59:12;6.30;;;2.22;;
69347;SDS011;56497;45.058;41.926;2023-03-31T00:59:48;5.30;;;2.10;;
69347;SDS011;56497;45.058;41.926;2023-03-31T01:00:21;6.40;;;2.08;;
69347;SDS011;56497;45.058;41.926;2023-03-31T01:00:54;6.74;;;2.26;;
69347;SDS011;56497;45.058;41.926;2023-03-31T01:01:26;5.94;;;2.16;;
69347;SDS011;56497;45.058;41.926;2023-03-31T01:01:59;5.32;;;2.00;;
69347;SDS011;56497;45.058;41.926;2023-03-31T01:02:31;5.40;;;2.26;;
69347;SDS011;56497;45.058;41.926;2023-03-31T01:03:04;5.93;;;2.20;;
69347;SDS011;56497;45.058;41.926;2023-03-31T01:03:36;5.20;;;2.10;;
69347;SDS011;56497;45.058;41.926;2023-03-31T01:04:07;4.80;;;1.80;;
69347;SDS011;56497;45.058;41.926;2023-03-31T01:04:44;5.22;;;2.10;;
69347;SDS011;56497;45.058;41.926;2023-03-31T01:05:24;5.72;;;2.20;;
69347;SDS011;56497;45.058;41.926;2023-03-31T01:06:00;5.93;;;2.22;;
69347;SDS011;56497;45.058;41.926;2023-03-31T01:06:43;5.50;;;2.15;;
69347;SDS011;56497;45.058;41.926;2023-03-31T01:07:36;5.25;;;2.00;;
69347;SDS011;56497;45.058;41.926;2023-03-31T01:08:12;5.10;;;1.90;;
69347;SDS011;56497;45.058;41.926;2023-03-31T01:08:48;6.18;;;1.80;;
69347;SDS011;56497;45.058;41.926;2023-03-31T01:09:20;5.12;;;1.88;;
69347;SDS011;56497;45.058;41.926;2023-03-31T01:09:52;5.07;;;1.98;;
69347;SDS011;56497;45.058;41.926;2023-03-31T01:10:26;5.20;;;1.98;;
69347;SDS011;56497;45.058;41.926;2023-03-31T01:11:02;6.22;;;2.20;;
69347;SDS011;56497;45.058;41.926;2023-03-31T01:11:35;5.18;;;1.90;;
69347;SDS011;56497;45.058;41.926;2023-03-31T01:12:07;5.93;;;2.00;;
69347;SDS011;56497;45.058;41.926;2023-03-31T01:12:40;5.70;;;1.98;;
69347;SDS011;56497;45.058;41.926;2023-03-31T01:13:14;5.40;;;2.13;;
69347;SDS011;56497;45.058;41.926;2023-03-31T01:13:46;5.10;;;2.08;;
69347;SDS011;56497;45.058;41.926;2023-03-31T01:14:20;6.38;;;2.20;;
69347;SDS011;56497;45.058;41.926;2023-03-31T01:14:50;5.30;;;2.10;;
69347;SDS011;56497;45.058;41.926;2023-03-31T01:15:22;5.45;;;2.00;;
69347;SDS011;56497;45.058;41.926;2023-03-31T01:15:52;4.87;;;1.87;;
69347;SDS011;56497;45.058;41.926;2023-03-31T01:16:23;6.13;;;1.85;;
69347;SDS011;56497;45.058;41.926;2023-03-31T01:16:54;5.37;;;2.00;;
69347;SDS011;56497;45.058;41.926;2023-03-31T01:17:25;5.80;;;2.10;;
69347;SDS011;56497;45.058;41.926;2023-03-31T01:17:58;6.13;;;2.17;;
69347;SDS011;56497;45.058;41.926;2023-03-31T01:18:29;5.50;;;2.03;;
69347;SDS011;56497;45.058;41.926;2023-03-31T01:19:05;5.32;;;2.10;;
69347;SDS011;56497;45.058;41.926;2023-03-31T01:22:22;4.80;;;1.75;;
69347;SDS011;56497;45.058;41.926;2023-03-31T01:26:24;6.15;;;1.80;;
69347;SDS011;56497;45.058;41.926;2023-03-31T01:29:41;5.68;;;1.90;;
69347;SDS011;56497;45.058;41.926;2023-03-31T01:31:04;5.97;;;1.90;;
69347;SDS011;56497;45.058;41.926;2023-03-31T01:33:07;5.15;;;2.00;;
69347;SDS011;56497;45.058;41.926;2023-03-31T01:36:47;5.10;;;1.85;;
69347;SDS011;56497;45.058;41.926;2023-03-31T01:37:44;5.03;;;1.70;;
69347;SDS011;56497;45.058;41.926;2023-03-31T01:40:05;5.45;;;1.80;;
69347;SDS011;56497;45.058;41.926;2023-03-31T01:41:02;5.32;;;1.85;;
69347;SDS011;56497;45.058;41.926;2023-03-31T01:42:16;4.95;;;1.77;;
69347;SDS011;56497;45.058;41.926;2023-03-31T01:43:13;5.07;;;1.67;;
69347;SDS011;56497;45.058;41.926;2023-03-31T01:44:01;5.43;;;1.90;;
69347;SDS011;56497;45.058;41.926;2023-03-31T01:45:18;5.80;;;1.90;;
69347;SDS011;56497;45.058;41.926;2023-03-31T01:48:46;4.88;;;1.70;;
69347;SDS011;56497;45.058;41.926;2023-03-31T01:50:01;5.93;;;1.75;;
69347;SDS011;56497;45.058;41.926;2023-03-31T01:53:09;5.22;;;1.70;;
69347;SDS011;56497;45.058;41.926;2023-03-31T01:53:58;5.45;;;1.90;;
69347;SDS011;56497;45.058;41.926;2023-03-31T01:54:46;6.13;;;1.90;;
69347;SDS011;56497;45.058;41.926;2023-03-31T01:56:04;5.70;;;1.80;;
69347;SDS011;56497;45.058;41.926;2023-03-31T01:57:14;5.65;;;1.80;;
69347;SDS011;56497;45.058;41.926;2023-03-31T01:57:53;5.28;;;1.73;;
69347;SDS011;56497;45.058;41.926;2023-03-31T01:58:35;5.93;;;2.00;;
69347;SDS011;56497;45.058;41.926;2023-03-31T01:59:13;5.70;;;1.70;;
69347;SDS011;56497;45.058;41.926;2023-03-31T02:00:09;5.78;;;1.88;;
69347;SDS011;56497;45.058;41.926;2023-03-31T02:00:44;5.60;;;1.80;;
69347;SDS011;56497;45.058;41.926;2023-03-31T02:01:27;5.22;;;1.95;;
69347;SDS011;56497;45.058;41.926;2023-03-31T02:02:09;6.65;;;2.00;;
69347;SDS011;56497;45.058;41.926;2023-03-31T02:03:41;6.93;;;2.10;;
69347;SDS011;56497;45.058;41.926;2023-03-31T02:04:33;5.85;;;2.10;;
69347;SDS011;56497;45.058;41.926;2023-03-31T02:05:33;6.10;;;1.88;;
69347;SDS011;56497;45.058;41.926;2023-03-31T02:06:11;5.13;;;1.80;;
69347;SDS011;56497;45.058;41.926;2023-03-31T02:06:50;6.03;;;1.88;;
69347;SDS011;56497;45.058;41.926;2023-03-31T02:07:31;5.50;;;2.00;;
69347;SDS011;56497;45.058;41.926;2023-03-31T02:08:16;5.93;;;1.83;;
69347;SDS011;56497;45.058;41.926;2023-03-31T02:08:59;6.72;;;2.20;;
69347;SDS011;56497;45.058;41.926;2023-03-31T02:09:34;5.68;;;1.90;;
69347;SDS011;56497;45.058;41.926;2023-03-31T02:10:09;5.18;;;1.90;;
69347;SDS011;56497;45.058;41.926;2023-03-31T02:10:43;6.32;;;2.10;;
69347;SDS011;56497;45.058;41.926;2023-03-31T02:11:15;5.00;;;1.83;;
69347;SDS011;56497;45.058;41.926;2023-03-31T02:11:46;5.00;;;1.83;;
69347;SDS011;56497;45.058;41.926;2023-03-31T02:12:18;6.05;;;1.95;;
69347;SDS011;56497;45.058;41.926;2023-03-31T02:12:52;5.65;;;2.03;;
69347;SDS011;56497;45.058;41.926;2023-03-31T02:13:24;5.60;;;1.80;;
69347;SDS011;56497;45.058;41.926;2023-03-31T02:13:57;5.78;;;2.00;;
69347;SDS011;56497;45.058;41.926;2023-03-31T02:14:31;5.72;;;1.90;;
69347;SDS011;56497;45.058;41.926;2023-03-31T02:15:03;6.18;;;2.00;;
69347;SDS011;56497;45.058;41.926;2023-03-31T02:15:37;6.05;;;1.80;;
69347;SDS011;56497;45.058;41.926;2023-03-31T02:16:12;5.07;;;1.90;;
69347;SDS011;56497;45.058;41.926;2023-03-31T02:16:49;5.38;;;2.00;;
69347;SDS011;56497;45.058;41.926;2023-03-31T02:17:27;5.85;;;2.05;;
69347;SDS011;56497;45.058;41.926;2023-03-31T02:18:02;4.98;;;1.94;;
69347;SDS011;56497;45.058;41.926;2023-03-31T02:18:40;5.30;;;1.88;;
69347;SDS011;56497;45.058;41.926;2023-03-31T02:19:13;5.57;;;1.95;;
69347;SDS011;56497;45.058;41.926;2023-03-31T02:19:49;5.32;;;1.85;;
69347;SDS011;56497;45.058;41.926;2023-03-31T02:20:22;5.65;;;1.90;;
69347;SDS011;56497;45.058;41.926;2023-03-31T02:20:55;6.03;;;1.85;;
69347;SDS011;56497;45.058;41.926;2023-03-31T02:21:28;5.57;;;1.90;;
69347;SDS011;56497;45.058;41.926;2023-03-31T02:22:02;5.30;;;1.85;;
69347;SDS011;56497;45.058;41.926;2023-03-31T02:22:37;5.88;;;1.95;;
69347;SDS011;56497;45.058;41.926;2023-03-31T02:23:11;5.00;;;1.83;;
69347;SDS011;56497;45.058;41.926;2023-03-31T02:23:44;4.94;;;1.80;;
69347;SDS011;56497;45.058;41.926;2023-03-31T02:24:18;5.88;;;1.90;;
69347;SDS011;56497;45.058;41.926;2023-03-31T02:24:51;5.32;;;1.75;;
69347;SDS011;56497;45.058;41.926;2023-03-31T02:25:23;5.34;;;1.90;;
69347;SDS011;56497;45.058;41.926;2023-03-31T02:26:07;5.65;;;1.80;;
69347;SDS011;56497;45.058;41.926;2023-03-31T02:26:44;5.43;;;1.80;;
69347;SDS011;56497;45.058;41.926;2023-03-31T02:27:30;5.38;;;1.80;;
69347;SDS011;56497;45.058;41.926;2023-03-31T02:28:08;5.03;;;1.80;;
69347;SDS011;56497;45.058;41.926;2023-03-31T02:28:41;5.56;;;1.90;;
69347;SDS011;56497;45.058;41.926;2023-03-31T02:29:12;5.32;;;1.90;;
69347;SDS011;56497;45.058;41.926;2023-03-31T02:29:43;6.70;;;1.90;;
69347;SDS011;56497;45.058;41.926;2023-03-31T02:30:14;5.18;;;1.80;;
69347;SDS011;56497;45.058;41.926;2023-03-31T02:30:48;5.00;;;1.80;;
69347;SDS011;56497;45.058;41.926;2023-03-31T02:32:24;5.25;;;1.80;;
69347;SDS011;56497;45.058;41.926;2023-03-31T02:33:01;5.82;;;1.80;;
69347;SDS011;56497;45.058;41.926;2023-03-31T02:33:33;6.25;;;1.80;;
69347;SDS011;56497;45.058;41.926;2023-03-31T02:34:04;5.20;;;1.90;;
69347;SDS011;56497;45.058;41.926;2023-03-31T02:34:35;5.93;;;1.80;;
69347;SDS011;56497;45.058;41.926;2023-03-31T02:35:07;4.80;;;1.80;;
69347;SDS011;56497;45.058;41.926;2023-03-31T02:35:40;4.80;;;1.85;;
69347;SDS011;56497;45.058;41.926;2023-03-31T02:36:11;5.50;;;2.00;;
69347;SDS011;56497;45.058;41.926;2023-03-31T02:36:42;6.07;;;1.90;;
69347;SDS011;56497;45.058;41.926;2023-03-31T02:37:14;5.30;;;1.80;;
69347;SDS011;56497;45.058;41.926;2023-03-31T02:37:45;5.84;;;2.00;;
69347;SDS011;56497;45.058;41.926;2023-03-31T02:38:18;5.62;;;2.00;;
69347;SDS011;56497;45.058;41.926;2023-03-31T02:38:56;5.30;;;1.80;;
69347;SDS011;56497;45.058;41.926;2023-03-31T02:39:48;5.65;;;1.88;;
69347;SDS011;56497;45.058;41.926;2023-03-31T02:40:23;5.63;;;1.90;;
69347;SDS011;56497;45.058;41.926;2023-03-31T02:40:56;5.00;;;1.80;;
69347;SDS011;56497;45.058;41.926;2023-03-31T02:41:27;5.20;;;1.80;;
69347;SDS011;56497;45.058;41.926;2023-03-31T02:41:58;5.20;;;1.90;;
69347;SDS011;56497;45.058;41.926;2023-03-31T02:42:31;5.55;;;2.00;;
69347;SDS011;56497;45.058;41.926;2023-03-31T02:43:02;6.57;;;2.00;;
69347;SDS011;56497;45.058;41.926;2023-03-31T02:43:33;5.40;;;1.90;;
69347;SDS011;56497;45.058;41.926;2023-03-31T02:44:03;5.38;;;1.90;;
69347;SDS011;56497;45.058;41.926;2023-03-31T02:44:35;6.03;;;2.10;;
69347;SDS011;56497;45.058;41.926;2023-03-31T02:45:36;5.68;;;1.94;;
69347;SDS011;56497;45.058;41.926;2023-03-31T02:46:06;5.53;;;1.75;;
69347;SDS011;56497;45.058;41.926;2023-03-31T02:46:37;4.90;;;1.77;;
69347;SDS011;56497;45.058;41.926;2023-03-31T02:47:10;5.38;;;1.90;;
69347;SDS011;56497;45.058;41.926;2023-03-31T02:47:43;6.35;;;1.90;;
69347;SDS011;56497;45.058;41.926;2023-03-31T02:48:58;5.22;;;1.77;;
69347;SDS011;56497;45.058;41.926;2023-03-31T02:49:31;5.10;;;1.96;;
69347;SDS011;56497;45.058;41.926;2023-03-31T02:50:02;5.52;;;2.00;;
69347;SDS011;56497;45.058;41.926;2023-03-31T02:50:55;5.64;;;1.90;;
69347;SDS011;56497;45.058;41.926;2023-03-31T02:52:50;5.28;;;1.70;;
69347;SDS011;56497;45.058;41.926;2023-03-31T02:54:40;6.10;;;2.05;;
69347;SDS011;56497;45.058;41.926;2023-03-31T02:57:11;5.85;;;2.10;;
69347;SDS011;56497;45.058;41.926;2023-03-31T02:58:17;6.30;;;1.98;;
69347;SDS011;56497;45.058;41.926;2023-03-31T02:59:05;5.45;;;1.70;;
69347;SDS011;56497;45.058;41.926;2023-03-31T03:00:05;5.22;;;1.73;;
69347;SDS011;56497;45.058;41.926;2023-03-31T03:01:26;5.88;;;1.70;;
69347;SDS011;56497;45.058;41.926;2023-03-31T03:02:57;5.20;;;1.80;;
69347;SDS011;56497;45.058;41.926;2023-03-31T03:07:07;5.75;;;1.80;;
69347;SDS011;56497;45.058;41.926;2023-03-31T03:08:23;5.40;;;1.67;;
69347;SDS011;56497;45.058;41.926;2023-03-31T03:10:07;6.45;;;2.00;;
69347;SDS011;56497;45.058;41.926;2023-03-31T03:13:00;5.70;;;1.80;;
69347;SDS011;56497;45.058;41.926;2023-03-31T03:13:57;5.05;;;1.88;;
69347;SDS011;56497;45.058;41.926;2023-03-31T03:14:47;5.72;;;1.90;;
69347;SDS011;56497;45.058;41.926;2023-03-31T03:15:40;5.43;;;1.90;;
69347;SDS011;56497;45.058;41.926;2023-03-31T03:16:32;5.70;;;1.80;;
69347;SDS011;56497;45.058;41.926;2023-03-31T03:17:09;5.05;;;1.80;;
69347;SDS011;56497;45.058;41.926;2023-03-31T03:17:51;5.43;;;2.00;;
69347;SDS011;56497;45.058;41.926;2023-03-31T03:18:23;5.80;;;1.90;;
69347;SDS011;56497;45.058;41.926;2023-03-31T03:18:58;5.70;;;1.97;;
69347;SDS011;56497;45.058;41.926;2023-03-31T03:19:29;5.57;;;1.90;;
69347;SDS011;56497;45.058;41.926;2023-03-31T03:20:01;6.20;;;2.10;;
69347;SDS011;56497;45.058;41.926;2023-03-31T03:20:38;5.65;;;2.08;;
69347;SDS011;56497;45.058;41.926;2023-03-31T03:21:11;5.64;;;2.04;;
69347;SDS011;56497;45.058;41.926;2023-03-31T03:21:42;5.87;;;2.13;;
69347;SDS011;56497;45.058;41.926;2023-03-31T03:22:14;7.97;;;2.00;;
69347;SDS011;56497;45.058;41.926;2023-03-31T03:22:45;6.23;;;1.90;;
69347;SDS011;56497;45.058;41.926;2023-03-31T03:23:16;5.90;;;2.25;;
69347;SDS011;56497;45.058;41.926;2023-03-31T03:23:47;5.95;;;2.00;;
69347;SDS011;56497;45.058;41.926;2023-03-31T03:24:17;5.70;;;2.13;;
69347;SDS011;56497;45.058;41.926;2023-03-31T03:24:48;5.63;;;1.95;;
69347;SDS011;56497;45.058;41.926;2023-03-31T03:25:20;6.18;;;2.00;;
69347;SDS011;56497;45.058;41.926;2023-03-31T03:25:51;6.85;;;2.20;;
69347;SDS011;56497;45.058;41.926;2023-03-31T03:26:21;6.85;;;2.30;;
69347;SDS011;56497;45.058;41.926;2023-03-31T03:26:52;6.66;;;2.04;;
69347;SDS011;56497;45.058;41.926;2023-03-31T03:27:23;6.10;;;2.20;;
69347;SDS011;56497;45.058;41.926;2023-03-31T03:27:54;5.95;;;2.00;;
69347;SDS011;56497;45.058;41.926;2023-03-31T03:28:25;5.57;;;2.10;;
69347;SDS011;56497;45.058;41.926;2023-03-31T03:28:56;5.58;;;1.90;;
69347;SDS011;56497;45.058;41.926;2023-03-31T03:29:27;5.66;;;1.98;;
69347;SDS011;56497;45.058;41.926;2023-03-31T03:29:57;5.28;;;2.10;;
69347;SDS011;56497;45.058;41.926;2023-03-31T03:30:28;7.32;;;2.00;;
69347;SDS011;56497;45.058;41.926;2023-03-31T03:30:59;5.50;;;2.00;;
69347;SDS011;56497;45.058;41.926;2023-03-31T03:31:29;6.03;;;1.85;;
69347;SDS011;56497;45.058;41.926;2023-03-31T03:32:02;6.04;;;2.10;;
69347;SDS011;56497;45.058;41.926;2023-03-31T03:32:33;5.20;;;1.95;;
69347;SDS011;56497;45.058;41.926;2023-03-31T03:33:04;6.15;;;2.20;;
69347;SDS011;56497;45.058;41.926;2023-03-31T03:33:35;5.22;;;1.90;;
69347;SDS011;56497;45.058;41.926;2023-03-31T03:34:09;5.94;;;2.00;;
69347;SDS011;56497;45.058;41.926;2023-03-31T03:34:40;7.05;;;2.10;;
69347;SDS011;56497;45.058;41.926;2023-03-31T03:35:10;5.63;;;2.00;;
69347;SDS011;56497;45.058;41.926;2023-03-31T03:35:42;8.98;;;2.10;;
69347;SDS011;56497;45.058;41.926;2023-03-31T03:36:12;6.03;;;2.08;;
69347;SDS011;56497;45.058;41.926;2023-03-31T03:36:43;6.65;;;2.00;;
69347;SDS011;56497;45.058;41.926;2023-03-31T03:37:14;6.10;;;2.00;;
69347;SDS011;56497;45.058;41.926;2023-03-31T03:37:44;5.63;;;2.40;;
69347;SDS011;56497;45.058;41.926;2023-03-31T03:38:15;5.75;;;2.00;;
69347;SDS011;56497;45.058;41.926;2023-03-31T03:38:46;6.00;;;1.90;;
69347;SDS011;56497;45.058;41.926;2023-03-31T03:39:16;6.60;;;1.90;;
69347;SDS011;56497;45.058;41.926;2023-03-31T03:39:47;5.57;;;1.98;;
69347;SDS011;56497;45.058;41.926;2023-03-31T03:40:17;5.78;;;1.83;;
69347;SDS011;56497;45.058;41.926;2023-03-31T03:40:51;7.13;;;2.10;;
69347;SDS011;56497;45.058;41.926;2023-03-31T03:41:22;5.07;;;2.00;;
69347;SDS011;56497;45.058;41.926;2023-03-31T03:41:53;5.47;;;2.00;;
69347;SDS011;56497;45.058;41.926;2023-03-31T03:42:24;5.22;;;2.00;;
69347;SDS011;56497;45.058;41.926;2023-03-31T03:42:54;4.90;;;1.80;;
69347;SDS011;56497;45.058;41.926;2023-03-31T03:43:25;6.22;;;1.98;;
69347;SDS011;56497;45.058;41.926;2023-03-31T03:43:55;5.72;;;2.03;;
69347;SDS011;56497;45.058;41.926;2023-03-31T03:44:26;5.53;;;1.98;;
69347;SDS011;56497;45.058;41.926;2023-03-31T03:44:57;5.28;;;2.10;;
69347;SDS011;56497;45.058;41.926;2023-03-31T03:45:27;5.88;;;1.80;;
69347;SDS011;56497;45.058;41.926;2023-03-31T03:45:59;5.25;;;1.83;;
69347;SDS011;56497;45.058;41.926;2023-03-31T03:46:30;5.28;;;1.70;;
69347;SDS011;56497;45.058;41.926;2023-03-31T03:47:00;6.15;;;1.90;;
69347;SDS011;56497;45.058;41.926;2023-03-31T03:47:31;5.40;;;1.80;;
69347;SDS011;56497;45.058;41.926;2023-03-31T03:48:01;5.30;;;1.77;;
69347;SDS011;56497;45.058;41.926;2023-03-31T03:48:32;4.65;;;1.70;;
69347;SDS011;56497;45.058;41.926;2023-03-31T03:49:03;4.78;;;1.70;;
69347;SDS011;56497;45.058;41.926;2023-03-31T03:49:33;4.80;;;1.70;;
69347;SDS011;56497;45.058;41.926;2023-03-31T03:50:04;4.97;;;1.67;;
69347;SDS011;56497;45.058;41.926;2023-03-31T03:50:36;5.13;;;1.80;;
69347;SDS011;56497;45.058;41.926;2023-03-31T03:51:07;5.20;;;1.98;;
69347;SDS011;56497;45.058;41.926;2023-03-31T03:51:37;5.85;;;1.70;;
69347;SDS011;56497;45.058;41.926;2023-03-31T03:52:08;5.88;;;1.80;;
69347;SDS011;56497;45.058;41.926;2023-03-31T03:52:39;6.50;;;1.80;;
69347;SDS011;56497;45.058;41.926;2023-03-31T03:53:09;7.50;;;1.90;;
69347;SDS011;56497;45.058;41.926;2023-03-31T03:53:40;5.10;;;1.70;;
69347;SDS011;56497;45.058;41.926;2023-03-31T03:54:11;5.63;;;1.73;;
69347;SDS011;56497;45.058;41.926;2023-03-31T03:54:42;5.47;;;1.70;;
69347;SDS011;56497;45.058;41.926;2023-03-31T03:55:12;5.07;;;1.70;;
69347;SDS011;56497;45.058;41.926;2023-03-31T03:55:43;5.10;;;1.80;;
69347;SDS011;56497;45.058;41.926;2023-03-31T03:56:14;4.43;;;1.52;;
69347;SDS011;56497;45.058;41.926;2023-03-31T03:56:45;5.10;;;1.70;;
69347;SDS011;56497;45.058;41.926;2023-03-31T03:57:15;5.03;;;1.80;;
69347;SDS011;56497;45.058;41.926;2023-03-31T03:57:46;5.03;;;1.80;;
69347;SDS011;56497;45.058;41.926;2023-03-31T03:58:17;5.43;;;1.70;;
69347;SDS011;56497;45.058;41.926;2023-03-31T03:58:50;4.78;;;1.70;;
69347;SDS011;56497;45.058;41.926;2023-03-31T03:59:21;5.40;;;1.65;;
69347;SDS011;56497;45.058;41.926;2023-03-31T03:59:52;4.97;;;1.90;;
69347;SDS011;56497;45.058;41.926;2023-03-31T04:00:22;4.60;;;1.70;;
69347;SDS011;56497;45.058;41.926;2023-03-31T04:00:53;5.28;;;1.90;;
69347;SDS011;56497;45.058;41.926;2023-03-31T04:01:24;4.65;;;1.65;;
69347;SDS011;56497;45.058;41.926;2023-03-31T04:01:54;5.05;;;1.70;;
69347;SDS011;56497;45.058;41.926;2023-03-31T04:02:25;5.93;;;1.90;;
69347;SDS011;56497;45.058;41.926;2023-03-31T04:02:57;5.47;;;1.60;;
69347;SDS011;56497;45.058;41.926;2023-03-31T04:03:28;5.75;;;1.85;;
69347;SDS011;56497;45.058;41.926;2023-03-31T04:03:58;4.90;;;1.80;;
69347;SDS011;56497;45.058;41.926;2023-03-31T04:04:29;5.00;;;1.52;;
69347;SDS011;56497;45.058;41.926;2023-03-31T04:05:00;6.65;;;1.88;;
69347;SDS011;56497;45.058;41.926;2023-03-31T04:05:30;4.95;;;1.75;;